This is the latest recevied weather packets stored in our database for station/object DC7RY. If no packets are shown the sender has not sent any weather packets the latest 10 day(s).
| Time | Temp. | Humidity | Pressure | Rain* | Wind** | Luminosity | Snow |
|---|---|---|---|---|---|---|---|
| 1776962423 | 20° C | 23% | 1017 hPa | 0 mm | - | 236 W/m² | - |
| 1776961815 | 20° C | 22% | 1017.2 hPa | 0 mm | - | 248 W/m² | - |
| 1776961223 | 20° C | 22% | 1017.2 hPa | 0 mm | - | 266 W/m² | - |
| 1776960615 | 20° C | 23% | 1017.2 hPa | 0 mm | - | 280 W/m² | - |
| 1776960023 | 20.56° C | 21% | 1017.4 hPa | 0 mm | - | 293 W/m² | - |
| 1776959415 | 20.56° C | 21% | 1017.4 hPa | 0 mm | - | 302 W/m² | - |
| 1776958823 | 20.56° C | 21% | 1017.6 hPa | 0 mm | - | 312 W/m² | - |
| 1776958231 | 20.56° C | 22% | 1017.5 hPa | 0 mm | - | 317 W/m² | - |
| 1776957623 | 20.56° C | 20% | 1017.6 hPa | 0 mm | - | 325 W/m² | - |
| 1776957029 | 20.56° C | 20% | 1017.6 hPa | 0 mm | - | 334 W/m² | - |
| 1776956421 | 20.56° C | 20% | 1017.7 hPa | 0 mm | - | 339 W/m² | - |
| 1776955829 | 20.56° C | 21% | 1017.9 hPa | 0 mm | - | 346 W/m² | - |
| 1776955221 | 20.56° C | 22% | 1018.1 hPa | 0 mm | - | 351 W/m² | - |
| 1776954629 | 20.56° C | 22% | 1018 hPa | 0 mm | - | 354 W/m² | - |
| 1776954021 | 21.11° C | 21% | 1018.1 hPa | 0 mm | - | 364 W/m² | - |
| 1776953429 | 20.56° C | 21% | 1018.4 hPa | 0 mm | - | 364 W/m² | - |
| 1776952821 | 20.56° C | 21% | 1018.4 hPa | 0 mm | - | 370 W/m² | - |
| 1776952229 | 20.56° C | 20% | 1018.4 hPa | 0 mm | - | 372 W/m² | - |
| 1776951621 | 20° C | 21% | 1018.4 hPa | 0 mm | - | 373 W/m² | - |
| 1776951029 | 20° C | 21% | 1018.6 hPa | 0 mm | - | 376 W/m² | - |
| 1776950421 | 20° C | 21% | 1018.7 hPa | 0 mm | - | 377 W/m² | - |
| 1776949829 | 20° C | 21% | 1019 hPa | 0 mm | - | 379 W/m² | - |
| 1776949221 | 19.44° C | 21% | 1019 hPa | 0 mm | - | 309 W/m² | - |
| 1776948629 | 18.89° C | 22% | 1019.2 hPa | 0 mm | - | 271 W/m² | - |
| 1776948021 | 18.33° C | 22% | 1019.2 hPa | 0 mm | - | 236 W/m² | - |
* Rain latest hour (hover to see other rain measurements)
** Current wind speed in m/s (hover to see current wind gust speed)